sensor_id;sensor_type;location;lat;lon;timestamp;temperature;humidity
7648;DHT22;3866;48.020;11.720;2023-11-21T00:00:36;5.60;99.90
7648;DHT22;3866;48.020;11.720;2023-11-21T00:03:04;5.60;99.90
7648;DHT22;3866;48.020;11.720;2023-11-21T00:05:33;5.70;99.90
7648;DHT22;3866;48.020;11.720;2023-11-21T00:08:02;5.90;99.90
7648;DHT22;3866;48.020;11.720;2023-11-21T00:10:31;6.10;99.90
7648;DHT22;3866;48.020;11.720;2023-11-21T00:12:59;6.20;99.90
7648;DHT22;3866;48.020;11.720;2023-11-21T00:15:29;6.20;99.90
7648;DHT22;3866;48.020;11.720;2023-11-21T00:17:58;6.20;99.90
7648;DHT22;3866;48.020;11.720;2023-11-21T00:20:26;6.20;99.90
7648;DHT22;3866;48.020;11.720;2023-11-21T00:22:54;6.20;99.90
7648;DHT22;3866;48.020;11.720;2023-11-21T00:25:22;6.20;99.90
7648;DHT22;3866;48.020;11.720;2023-11-21T00:27:54;6.20;99.90
7648;DHT22;3866;48.020;11.720;2023-11-21T00:30:21;6.20;99.90
7648;DHT22;3866;48.020;11.720;2023-11-21T00:32:50;6.20;99.90
7648;DHT22;3866;48.020;11.720;2023-11-21T00:35:18;6.20;99.90
7648;DHT22;3866;48.020;11.720;2023-11-21T00:37:46;6.20;99.90
7648;DHT22;3866;48.020;11.720;2023-11-21T00:40:16;6.30;99.90
7648;DHT22;3866;48.020;11.720;2023-11-21T00:42:46;6.40;99.90
7648;DHT22;3866;48.020;11.720;2023-11-21T00:45:16;6.30;99.90
7648;DHT22;3866;48.020;11.720;2023-11-21T00:47:44;6.10;99.90
7648;DHT22;3866;48.020;11.720;2023-11-21T00:50:12;6.10;99.90
7648;DHT22;3866;48.020;11.720;2023-11-21T00:52:41;6.10;99.90
7648;DHT22;3866;48.020;11.720;2023-11-21T00:55:09;6.10;99.90
7648;DHT22;3866;48.020;11.720;2023-11-21T00:57:38;6.00;99.90
7648;DHT22;3866;48.020;11.720;2023-11-21T01:00:07;5.90;99.90
7648;DHT22;3866;48.020;11.720;2023-11-21T01:02:45;5.90;99.90
7648;DHT22;3866;48.020;11.720;2023-11-21T01:05:15;5.80;99.90
7648;DHT22;3866;48.020;11.720;2023-11-21T01:07:43;5.90;99.90
7648;DHT22;3866;48.020;11.720;2023-11-21T01:10:11;6.00;99.90
7648;DHT22;3866;48.020;11.720;2023-11-21T01:12:39;5.90;99.90
7648;DHT22;3866;48.020;11.720;2023-11-21T01:15:09;6.00;99.90
7648;DHT22;3866;48.020;11.720;2023-11-21T01:17:38;5.90;99.90
7648;DHT22;3866;48.020;11.720;2023-11-21T01:20:14;5.90;99.90
7648;DHT22;3866;48.020;11.720;2023-11-21T01:22:42;5.70;99.90
7648;DHT22;3866;48.020;11.720;2023-11-21T01:25:11;5.60;99.90
7648;DHT22;3866;48.020;11.720;2023-11-21T01:27:41;5.40;99.90
7648;DHT22;3866;48.020;11.720;2023-11-21T01:30:09;5.40;99.90
7648;DHT22;3866;48.020;11.720;2023-11-21T01:32:38;5.30;99.90
7648;DHT22;3866;48.020;11.720;2023-11-21T01:35:09;5.30;99.90
7648;DHT22;3866;48.020;11.720;2023-11-21T01:37:36;5.30;99.90
7648;DHT22;3866;48.020;11.720;2023-11-21T01:40:04;5.40;99.90
7648;DHT22;3866;48.020;11.720;2023-11-21T01:42:35;5.50;99.90
7648;DHT22;3866;48.020;11.720;2023-11-21T01:45:02;5.40;99.90
7648;DHT22;3866;48.020;11.720;2023-11-21T01:47:30;5.40;99.90
7648;DHT22;3866;48.020;11.720;2023-11-21T01:49:58;5.50;99.90
7648;DHT22;3866;48.020;11.720;2023-11-21T01:52:27;5.50;99.90
7648;DHT22;3866;48.020;11.720;2023-11-21T01:54:54;5.40;99.90
7648;DHT22;3866;48.020;11.720;2023-11-21T01:57:21;5.30;99.90
7648;DHT22;3866;48.020;11.720;2023-11-21T01:59:49;5.30;99.90
7648;DHT22;3866;48.020;11.720;2023-11-21T02:02:16;5.30;99.90
7648;DHT22;3866;48.020;11.720;2023-11-21T02:04:43;5.30;99.90
7648;DHT22;3866;48.020;11.720;2023-11-21T02:07:10;5.30;99.90
7648;DHT22;3866;48.020;11.720;2023-11-21T02:09:38;5.30;99.90
7648;DHT22;3866;48.020;11.720;2023-11-21T02:12:08;5.40;99.90
7648;DHT22;3866;48.020;11.720;2023-11-21T02:14:36;5.50;99.90
7648;DHT22;3866;48.020;11.720;2023-11-21T02:17:03;5.60;99.90
7648;DHT22;3866;48.020;11.720;2023-11-21T02:19:30;5.80;99.90
7648;DHT22;3866;48.020;11.720;2023-11-21T02:21:59;5.90;99.90
7648;DHT22;3866;48.020;11.720;2023-11-21T02:24:31;5.90;99.90
7648;DHT22;3866;48.020;11.720;2023-11-21T02:26:58;6.00;99.90
7648;DHT22;3866;48.020;11.720;2023-11-21T02:29:25;6.10;99.90
7648;DHT22;3866;48.020;11.720;2023-11-21T02:31:54;6.10;99.90
7648;DHT22;3866;48.020;11.720;2023-11-21T02:34:22;6.20;99.90
7648;DHT22;3866;48.020;11.720;2023-11-21T02:36:50;6.20;99.90
7648;DHT22;3866;48.020;11.720;2023-11-21T02:39:17;6.20;99.90
7648;DHT22;3866;48.020;11.720;2023-11-21T02:41:49;6.10;99.90
7648;DHT22;3866;48.020;11.720;2023-11-21T02:44:15;6.20;99.90
7648;DHT22;3866;48.020;11.720;2023-11-21T02:46:42;6.10;99.90
7648;DHT22;3866;48.020;11.720;2023-11-21T02:49:09;6.20;99.90
7648;DHT22;3866;48.020;11.720;2023-11-21T02:51:37;6.30;99.90
7648;DHT22;3866;48.020;11.720;2023-11-21T02:54:05;6.30;99.90
7648;DHT22;3866;48.020;11.720;2023-11-21T02:56:34;6.20;99.90
7648;DHT22;3866;48.020;11.720;2023-11-21T02:59:02;6.20;99.90
7648;DHT22;3866;48.020;11.720;2023-11-21T03:01:30;6.20;99.90
7648;DHT22;3866;48.020;11.720;2023-11-21T03:03:57;6.20;99.90
7648;DHT22;3866;48.020;11.720;2023-11-21T03:06:24;6.20;99.90
7648;DHT22;3866;48.020;11.720;2023-11-21T03:08:51;6.30;99.90
7648;DHT22;3866;48.020;11.720;2023-11-21T03:11:18;6.30;99.90
7648;DHT22;3866;48.020;11.720;2023-11-21T03:13:45;6.30;99.90
7648;DHT22;3866;48.020;11.720;2023-11-21T03:16:15;6.30;99.90
7648;DHT22;3866;48.020;11.720;2023-11-21T03:18:42;6.30;99.90
7648;DHT22;3866;48.020;11.720;2023-11-21T03:21:10;6.30;99.90
7648;DHT22;3866;48.020;11.720;2023-11-21T03:23:37;6.20;99.90
7648;DHT22;3866;48.020;11.720;2023-11-21T03:26:04;6.20;99.90
7648;DHT22;3866;48.020;11.720;2023-11-21T03:28:31;6.20;99.90
7648;DHT22;3866;48.020;11.720;2023-11-21T03:30:58;6.20;99.90
7648;DHT22;3866;48.020;11.720;2023-11-21T03:33:26;6.10;99.90
7648;DHT22;3866;48.020;11.720;2023-11-21T03:35:53;6.10;99.90
7648;DHT22;3866;48.020;11.720;2023-11-21T03:38:20;6.10;99.90
7648;DHT22;3866;48.020;11.720;2023-11-21T03:40:47;6.10;99.90
7648;DHT22;3866;48.020;11.720;2023-11-21T03:43:14;6.10;99.90
7648;DHT22;3866;48.020;11.720;2023-11-21T03:45:41;6.20;99.90
7648;DHT22;3866;48.020;11.720;2023-11-21T03:48:08;6.10;99.90
7648;DHT22;3866;48.020;11.720;2023-11-21T03:50:36;6.10;99.90
7648;DHT22;3866;48.020;11.720;2023-11-21T03:53:03;6.10;99.90
7648;DHT22;3866;48.020;11.720;2023-11-21T03:55:30;6.20;99.90
7648;DHT22;3866;48.020;11.720;2023-11-21T03:57:58;6.20;99.90
7648;DHT22;3866;48.020;11.720;2023-11-21T04:00:25;6.30;99.90
7648;DHT22;3866;48.020;11.720;2023-11-21T04:02:52;6.20;99.90
7648;DHT22;3866;48.020;11.720;2023-11-21T04:05:20;6.20;99.90
7648;DHT22;3866;48.020;11.720;2023-11-21T04:07:50;6.20;99.90
7648;DHT22;3866;48.020;11.720;2023-11-21T04:10:17;6.30;99.90
7648;DHT22;3866;48.020;11.720;2023-11-21T04:12:44;6.20;99.90
7648;DHT22;3866;48.020;11.720;2023-11-21T04:15:12;6.30;99.90
7648;DHT22;3866;48.020;11.720;2023-11-21T04:17:40;6.30;99.90
7648;DHT22;3866;48.020;11.720;2023-11-21T04:20:08;6.30;99.90
7648;DHT22;3866;48.020;11.720;2023-11-21T04:22:37;6.30;99.90
7648;DHT22;3866;48.020;11.720;2023-11-21T04:25:08;6.30;99.90
7648;DHT22;3866;48.020;11.720;2023-11-21T04:27:36;6.30;99.90
7648;DHT22;3866;48.020;11.720;2023-11-21T04:30:04;6.30;99.90
7648;DHT22;3866;48.020;11.720;2023-11-21T04:32:32;6.40;99.90
7648;DHT22;3866;48.020;11.720;2023-11-21T04:35:00;6.40;99.90
7648;DHT22;3866;48.020;11.720;2023-11-21T04:37:27;6.40;99.90
7648;DHT22;3866;48.020;11.720;2023-11-21T04:39:55;6.40;99.90
7648;DHT22;3866;48.020;11.720;2023-11-21T04:42:25;6.50;99.90
7648;DHT22;3866;48.020;11.720;2023-11-21T04:44:53;6.40;99.90
7648;DHT22;3866;48.020;11.720;2023-11-21T04:47:21;6.40;99.90
7648;DHT22;3866;48.020;11.720;2023-11-21T04:49:49;6.40;99.90
7648;DHT22;3866;48.020;11.720;2023-11-21T04:52:17;6.30;99.90
7648;DHT22;3866;48.020;11.720;2023-11-21T04:54:46;6.30;99.90
7648;DHT22;3866;48.020;11.720;2023-11-21T04:57:15;6.30;99.90
7648;DHT22;3866;48.020;11.720;2023-11-21T04:59:46;6.40;99.90
7648;DHT22;3866;48.020;11.720;2023-11-21T05:02:14;6.30;99.90
7648;DHT22;3866;48.020;11.720;2023-11-21T05:04:42;6.30;99.90
7648;DHT22;3866;48.020;11.720;2023-11-21T05:07:12;6.40;99.90
7648;DHT22;3866;48.020;11.720;2023-11-21T05:09:41;6.30;99.90
7648;DHT22;3866;48.020;11.720;2023-11-21T05:12:10;6.30;99.90
7648;DHT22;3866;48.020;11.720;2023-11-21T05:14:39;6.20;99.90
7648;DHT22;3866;48.020;11.720;2023-11-21T05:17:08;6.20;99.90
7648;DHT22;3866;48.020;11.720;2023-11-21T05:19:36;6.20;99.90
7648;DHT22;3866;48.020;11.720;2023-11-21T05:22:05;6.20;99.90
7648;DHT22;3866;48.020;11.720;2023-11-21T05:24:34;6.20;99.90
7648;DHT22;3866;48.020;11.720;2023-11-21T05:27:03;6.20;99.90
7648;DHT22;3866;48.020;11.720;2023-11-21T05:29:30;6.20;99.90
7648;DHT22;3866;48.020;11.720;2023-11-21T05:31:59;6.20;99.90
7648;DHT22;3866;48.020;11.720;2023-11-21T05:34:28;6.20;99.90
7648;DHT22;3866;48.020;11.720;2023-11-21T05:36:55;6.10;99.90
7648;DHT22;3866;48.020;11.720;2023-11-21T05:39:24;6.20;99.90
7648;DHT22;3866;48.020;11.720;2023-11-21T05:41:52;6.20;99.90
7648;DHT22;3866;48.020;11.720;2023-11-21T05:44:21;6.20;99.90
7648;DHT22;3866;48.020;11.720;2023-11-21T05:46:50;6.10;99.90
7648;DHT22;3866;48.020;11.720;2023-11-21T05:49:17;6.10;99.90
7648;DHT22;3866;48.020;11.720;2023-11-21T05:51:49;6.10;99.90
7648;DHT22;3866;48.020;11.720;2023-11-21T05:54:20;6.00;99.90
7648;DHT22;3866;48.020;11.720;2023-11-21T05:56:49;6.10;99.90
7648;DHT22;3866;48.020;11.720;2023-11-21T05:59:17;6.10;99.90
7648;DHT22;3866;48.020;11.720;2023-11-21T06:01:47;6.10;99.90
7648;DHT22;3866;48.020;11.720;2023-11-21T06:04:15;6.10;99.90
7648;DHT22;3866;48.020;11.720;2023-11-21T06:06:44;6.10;99.90
7648;DHT22;3866;48.020;11.720;2023-11-21T06:09:14;6.10;99.90
7648;DHT22;3866;48.020;11.720;2023-11-21T06:11:43;6.10;99.90
7648;DHT22;3866;48.020;11.720;2023-11-21T06:14:11;6.10;99.90
7648;DHT22;3866;48.020;11.720;2023-11-21T06:16:39;6.10;99.90
7648;DHT22;3866;48.020;11.720;2023-11-21T06:19:08;6.00;99.90
7648;DHT22;3866;48.020;11.720;2023-11-21T06:21:37;6.00;99.90
7648;DHT22;3866;48.020;11.720;2023-11-21T06:24:06;6.10;99.90
7648;DHT22;3866;48.020;11.720;2023-11-21T06:26:35;6.10;99.90
7648;DHT22;3866;48.020;11.720;2023-11-21T06:29:02;6.00;99.90
7648;DHT22;3866;48.020;11.720;2023-11-21T06:31:31;6.00;99.90
7648;DHT22;3866;48.020;11.720;2023-11-21T06:33:59;6.00;99.90
7648;DHT22;3866;48.020;11.720;2023-11-21T06:36:28;6.00;99.90
7648;DHT22;3866;48.020;11.720;2023-11-21T06:38:56;6.10;99.90
7648;DHT22;3866;48.020;11.720;2023-11-21T06:41:23;6.10;99.90
7648;DHT22;3866;48.020;11.720;2023-11-21T06:43:56;6.20;99.90
7648;DHT22;3866;48.020;11.720;2023-11-21T06:46:24;6.10;99.90
7648;DHT22;3866;48.020;11.720;2023-11-21T06:48:53;6.10;99.90
7648;DHT22;3866;48.020;11.720;2023-11-21T06:51:21;6.20;99.90
7648;DHT22;3866;48.020;11.720;2023-11-21T06:53:49;6.30;99.90
7648;DHT22;3866;48.020;11.720;2023-11-21T06:56:16;6.20;99.90
7648;DHT22;3866;48.020;11.720;2023-11-21T06:58:45;6.20;99.90
7648;DHT22;3866;48.020;11.720;2023-11-21T07:01:18;6.20;99.90
7648;DHT22;3866;48.020;11.720;2023-11-21T07:03:46;6.20;99.90
7648;DHT22;3866;48.020;11.720;2023-11-21T07:06:14;6.30;99.90
7648;DHT22;3866;48.020;11.720;2023-11-21T07:08:43;6.30;99.90
7648;DHT22;3866;48.020;11.720;2023-11-21T07:11:11;6.30;99.90
7648;DHT22;3866;48.020;11.720;2023-11-21T07:13:39;6.30;99.90
7648;DHT22;3866;48.020;11.720;2023-11-21T07:16:08;6.30;99.90
7648;DHT22;3866;48.020;11.720;2023-11-21T07:18:38;6.40;99.90
7648;DHT22;3866;48.020;11.720;2023-11-21T07:21:07;6.50;99.90
7648;DHT22;3866;48.020;11.720;2023-11-21T07:23:35;6.50;99.90
7648;DHT22;3866;48.020;11.720;2023-11-21T07:26:03;6.40;99.90
7648;DHT22;3866;48.020;11.720;2023-11-21T07:28:34;6.40;99.90
7648;DHT22;3866;48.020;11.720;2023-11-21T07:31:03;6.30;99.90
7648;DHT22;3866;48.020;11.720;2023-11-21T07:33:31;6.40;99.90
7648;DHT22;3866;48.020;11.720;2023-11-21T07:36:01;6.30;99.90
7648;DHT22;3866;48.020;11.720;2023-11-21T07:38:29;6.40;99.90
7648;DHT22;3866;48.020;11.720;2023-11-21T07:40:58;6.40;99.90
7648;DHT22;3866;48.020;11.720;2023-11-21T07:43:28;6.50;99.90
7648;DHT22;3866;48.020;11.720;2023-11-21T07:46:01;6.40;99.90
7648;DHT22;3866;48.020;11.720;2023-11-21T07:48:30;6.50;99.90
7648;DHT22;3866;48.020;11.720;2023-11-21T07:50:58;6.50;99.90
7648;DHT22;3866;48.020;11.720;2023-11-21T07:53:28;6.60;99.90
7648;DHT22;3866;48.020;11.720;2023-11-21T07:55:58;6.60;99.90
7648;DHT22;3866;48.020;11.720;2023-11-21T07:58:26;6.50;99.90
7648;DHT22;3866;48.020;11.720;2023-11-21T08:00:55;6.60;99.90
7648;DHT22;3866;48.020;11.720;2023-11-21T08:03:23;6.50;99.90
7648;DHT22;3866;48.020;11.720;2023-11-21T08:05:53;6.60;99.90
7648;DHT22;3866;48.020;11.720;2023-11-21T08:08:21;7.00;99.90
7648;DHT22;3866;48.020;11.720;2023-11-21T08:10:52;7.10;99.90
7648;DHT22;3866;48.020;11.720;2023-11-21T08:13:22;6.80;99.90
7648;DHT22;3866;48.020;11.720;2023-11-21T08:15:53;6.80;99.90
7648;DHT22;3866;48.020;11.720;2023-11-21T08:18:22;6.90;99.90
7648;DHT22;3866;48.020;11.720;2023-11-21T08:20:51;7.00;99.90
7648;DHT22;3866;48.020;11.720;2023-11-21T08:23:22;7.10;99.90
7648;DHT22;3866;48.020;11.720;2023-11-21T08:25:53;6.90;99.90
7648;DHT22;3866;48.020;11.720;2023-11-21T08:28:22;6.90;99.90
7648;DHT22;3866;48.020;11.720;2023-11-21T08:30:52;7.00;99.90
7648;DHT22;3866;48.020;11.720;2023-11-21T08:33:21;7.20;99.90
7648;DHT22;3866;48.020;11.720;2023-11-21T08:35:49;7.10;99.90
7648;DHT22;3866;48.020;11.720;2023-11-21T08:38:17;7.10;99.90
7648;DHT22;3866;48.020;11.720;2023-11-21T08:40:45;7.00;99.90
7648;DHT22;3866;48.020;11.720;2023-11-21T08:43:14;7.10;99.90
7648;DHT22;3866;48.020;11.720;2023-11-21T08:45:43;7.00;99.90
7648;DHT22;3866;48.020;11.720;2023-11-21T08:48:09;7.00;99.90
7648;DHT22;3866;48.020;11.720;2023-11-21T08:50:39;7.10;99.90
7648;DHT22;3866;48.020;11.720;2023-11-21T08:53:07;7.10;99.90
7648;DHT22;3866;48.020;11.720;2023-11-21T08:55:35;7.30;99.90
7648;DHT22;3866;48.020;11.720;2023-11-21T08:58:06;7.10;99.90
7648;DHT22;3866;48.020;11.720;2023-11-21T09:00:34;7.20;99.90
7648;DHT22;3866;48.020;11.720;2023-11-21T09:03:03;7.10;99.90
7648;DHT22;3866;48.020;11.720;2023-11-21T09:05:37;7.10;99.90
7648;DHT22;3866;48.020;11.720;2023-11-21T09:08:05;7.20;99.90
7648;DHT22;3866;48.020;11.720;2023-11-21T09:10:33;7.20;99.90
7648;DHT22;3866;48.020;11.720;2023-11-21T09:13:01;7.30;99.90
7648;DHT22;3866;48.020;11.720;2023-11-21T09:15:28;7.40;99.90
7648;DHT22;3866;48.020;11.720;2023-11-21T09:18:02;7.40;99.90
7648;DHT22;3866;48.020;11.720;2023-11-21T09:20:31;7.30;99.90
7648;DHT22;3866;48.020;11.720;2023-11-21T09:22:59;7.30;99.90
7648;DHT22;3866;48.020;11.720;2023-11-21T09:25:27;7.40;99.90
7648;DHT22;3866;48.020;11.720;2023-11-21T09:27:56;7.60;99.90
7648;DHT22;3866;48.020;11.720;2023-11-21T09:30:25;7.70;99.90
7648;DHT22;3866;48.020;11.720;2023-11-21T09:32:53;7.70;99.90
7648;DHT22;3866;48.020;11.720;2023-11-21T09:35:24;7.80;99.90
7648;DHT22;3866;48.020;11.720;2023-11-21T09:37:52;7.70;99.90
7648;DHT22;3866;48.020;11.720;2023-11-21T09:40:21;7.80;99.90
7648;DHT22;3866;48.020;11.720;2023-11-21T09:42:54;7.70;99.90
7648;DHT22;3866;48.020;11.720;2023-11-21T09:45:25;7.60;99.90
7648;DHT22;3866;48.020;11.720;2023-11-21T09:47:54;7.80;99.90
7648;DHT22;3866;48.020;11.720;2023-11-21T09:50:25;7.80;99.90
7648;DHT22;3866;48.020;11.720;2023-11-21T09:53:01;7.90;99.90
7648;DHT22;3866;48.020;11.720;2023-11-21T09:55:34;7.90;99.90
7648;DHT22;3866;48.020;11.720;2023-11-21T09:58:04;7.90;99.90
7648;DHT22;3866;48.020;11.720;2023-11-21T10:00:34;7.90;99.90
7648;DHT22;3866;48.020;11.720;2023-11-21T10:03:03;7.80;99.90
7648;DHT22;3866;48.020;11.720;2023-11-21T10:05:31;7.90;99.90
7648;DHT22;3866;48.020;11.720;2023-11-21T10:07:59;7.90;99.90
7648;DHT22;3866;48.020;11.720;2023-11-21T10:10:28;7.90;99.90
7648;DHT22;3866;48.020;11.720;2023-11-21T10:13:02;7.90;99.90
7648;DHT22;3866;48.020;11.720;2023-11-21T10:15:34;7.80;99.90
7648;DHT22;3866;48.020;11.720;2023-11-21T10:18:03;7.80;99.90
7648;DHT22;3866;48.020;11.720;2023-11-21T10:20:34;7.70;99.90
7648;DHT22;3866;48.020;11.720;2023-11-21T10:23:05;7.80;99.90
7648;DHT22;3866;48.020;11.720;2023-11-21T10:25:34;7.90;99.90
7648;DHT22;3866;48.020;11.720;2023-11-21T10:28:04;7.80;99.90
7648;DHT22;3866;48.020;11.720;2023-11-21T10:30:34;7.90;99.90
7648;DHT22;3866;48.020;11.720;2023-11-21T10:33:05;8.00;99.90
7648;DHT22;3866;48.020;11.720;2023-11-21T10:35:48;8.00;99.90
7648;DHT22;3866;48.020;11.720;2023-11-21T10:38:18;7.90;99.90
7648;DHT22;3866;48.020;11.720;2023-11-21T10:40:51;8.00;99.90
7648;DHT22;3866;48.020;11.720;2023-11-21T10:43:25;8.10;99.90
7648;DHT22;3866;48.020;11.720;2023-11-21T10:45:58;8.30;99.90
7648;DHT22;3866;48.020;11.720;2023-11-21T10:48:26;8.20;99.90
7648;DHT22;3866;48.020;11.720;2023-11-21T10:50:54;8.40;99.90
7648;DHT22;3866;48.020;11.720;2023-11-21T10:53:28;8.30;99.90
7648;DHT22;3866;48.020;11.720;2023-11-21T10:56:04;8.50;99.90
7648;DHT22;3866;48.020;11.720;2023-11-21T10:58:35;8.40;99.90
7648;DHT22;3866;48.020;11.720;2023-11-21T11:01:06;8.50;99.90
7648;DHT22;3866;48.020;11.720;2023-11-21T11:03:36;8.30;99.90
7648;DHT22;3866;48.020;11.720;2023-11-21T11:06:07;8.30;99.90
7648;DHT22;3866;48.020;11.720;2023-11-21T11:08:38;8.40;99.90
7648;DHT22;3866;48.020;11.720;2023-11-21T11:11:08;8.40;99.90
7648;DHT22;3866;48.020;11.720;2023-11-21T11:13:37;8.50;99.90
7648;DHT22;3866;48.020;11.720;2023-11-21T11:16:06;8.40;99.90
7648;DHT22;3866;48.020;11.720;2023-11-21T11:18:37;8.30;99.90
7648;DHT22;3866;48.020;11.720;2023-11-21T11:21:19;8.30;99.90
7648;DHT22;3866;48.020;11.720;2023-11-21T11:24:04;8.30;99.90
7648;DHT22;3866;48.020;11.720;2023-11-21T11:26:42;8.30;99.90
7648;DHT22;3866;48.020;11.720;2023-11-21T11:29:16;8.40;99.90
7648;DHT22;3866;48.020;11.720;2023-11-21T11:31:54;8.40;99.90
7648;DHT22;3866;48.020;11.720;2023-11-21T11:34:28;8.50;99.90
7648;DHT22;3866;48.020;11.720;2023-11-21T11:37:01;8.50;99.90
7648;DHT22;3866;48.020;11.720;2023-11-21T11:39:36;8.50;99.90
7648;DHT22;3866;48.020;11.720;2023-11-21T11:42:08;8.50;99.90
7648;DHT22;3866;48.020;11.720;2023-11-21T11:44:51;8.50;99.90
7648;DHT22;3866;48.020;11.720;2023-11-21T11:47:27;8.80;99.90
7648;DHT22;3866;48.020;11.720;2023-11-21T11:50:05;8.40;99.90
7648;DHT22;3866;48.020;11.720;2023-11-21T11:52:42;8.60;99.90
7648;DHT22;3866;48.020;11.720;2023-11-21T11:55:11;8.60;99.90
7648;DHT22;3866;48.020;11.720;2023-11-21T11:57:41;8.60;99.90
7648;DHT22;3866;48.020;11.720;2023-11-21T12:00:13;8.80;99.90
7648;DHT22;3866;48.020;11.720;2023-11-21T12:02:46;9.00;99.90
7648;DHT22;3866;48.020;11.720;2023-11-21T12:05:17;8.90;99.90
7648;DHT22;3866;48.020;11.720;2023-11-21T12:08:00;8.80;99.90
7648;DHT22;3866;48.020;11.720;2023-11-21T12:10:30;8.70;99.90
7648;DHT22;3866;48.020;11.720;2023-11-21T12:12:58;8.70;99.90
7648;DHT22;3866;48.020;11.720;2023-11-21T12:15:29;8.80;99.90
7648;DHT22;3866;48.020;11.720;2023-11-21T12:17:58;9.00;99.90
7648;DHT22;3866;48.020;11.720;2023-11-21T12:20:27;9.10;99.90
7648;DHT22;3866;48.020;11.720;2023-11-21T12:22:59;9.30;99.90
7648;DHT22;3866;48.020;11.720;2023-11-21T12:25:28;9.50;99.90
7648;DHT22;3866;48.020;11.720;2023-11-21T12:27:59;9.30;99.90
7648;DHT22;3866;48.020;11.720;2023-11-21T12:30:29;9.30;99.90
7648;DHT22;3866;48.020;11.720;2023-11-21T12:32:59;9.20;99.90
7648;DHT22;3866;48.020;11.720;2023-11-21T12:35:32;9.10;99.90
7648;DHT22;3866;48.020;11.720;2023-11-21T12:38:03;8.90;99.90
7648;DHT22;3866;48.020;11.720;2023-11-21T12:40:31;8.80;99.90
7648;DHT22;3866;48.020;11.720;2023-11-21T12:43:00;8.80;99.90
7648;DHT22;3866;48.020;11.720;2023-11-21T12:45:30;8.70;99.90
7648;DHT22;3866;48.020;11.720;2023-11-21T12:47:59;8.80;99.90
7648;DHT22;3866;48.020;11.720;2023-11-21T12:50:31;8.80;99.90
7648;DHT22;3866;48.020;11.720;2023-11-21T12:53:08;8.90;99.90
7648;DHT22;3866;48.020;11.720;2023-11-21T12:55:39;8.90;99.90
7648;DHT22;3866;48.020;11.720;2023-11-21T12:58:10;9.30;99.90
7648;DHT22;3866;48.020;11.720;2023-11-21T13:00:42;9.50;99.90
7648;DHT22;3866;48.020;11.720;2023-11-21T13:03:13;9.60;99.90
7648;DHT22;3866;48.020;11.720;2023-11-21T13:05:44;9.80;99.90
7648;DHT22;3866;48.020;11.720;2023-11-21T13:08:14;9.70;99.90
7648;DHT22;3866;48.020;11.720;2023-11-21T13:10:49;9.70;99.90
7648;DHT22;3866;48.020;11.720;2023-11-21T13:13:18;9.70;99.90
7648;DHT22;3866;48.020;11.720;2023-11-21T13:15:52;9.70;99.90
7648;DHT22;3866;48.020;11.720;2023-11-21T13:18:22;9.70;99.90
7648;DHT22;3866;48.020;11.720;2023-11-21T13:20:50;9.80;99.90
7648;DHT22;3866;48.020;11.720;2023-11-21T13:23:21;9.70;99.90
7648;DHT22;3866;48.020;11.720;2023-11-21T13:25:49;9.70;99.90
7648;DHT22;3866;48.020;11.720;2023-11-21T13:28:17;9.70;99.90
7648;DHT22;3866;48.020;11.720;2023-11-21T13:30:47;9.80;99.90
7648;DHT22;3866;48.020;11.720;2023-11-21T13:33:19;9.80;99.90
7648;DHT22;3866;48.020;11.720;2023-11-21T13:35:54;9.70;99.90
7648;DHT22;3866;48.020;11.720;2023-11-21T13:38:25;9.60;99.90
7648;DHT22;3866;48.020;11.720;2023-11-21T13:40:59;9.60;99.90
7648;DHT22;3866;48.020;11.720;2023-11-21T13:43:26;9.50;99.90
7648;DHT22;3866;48.020;11.720;2023-11-21T13:45:55;9.50;99.90
7648;DHT22;3866;48.020;11.720;2023-11-21T13:48:27;9.40;99.90
7648;DHT22;3866;48.020;11.720;2023-11-21T13:51:05;9.50;99.90
7648;DHT22;3866;48.020;11.720;2023-11-21T13:53:44;9.80;99.90
7648;DHT22;3866;48.020;11.720;2023-11-21T13:56:14;9.70;99.90
7648;DHT22;3866;48.020;11.720;2023-11-21T13:58:46;9.40;99.90
7648;DHT22;3866;48.020;11.720;2023-11-21T14:01:18;9.30;99.90
7648;DHT22;3866;48.020;11.720;2023-11-21T14:04:23;9.00;99.90
7648;DHT22;3866;48.020;11.720;2023-11-21T14:07:20;8.80;99.90
7648;DHT22;3866;48.020;11.720;2023-11-21T14:09:56;8.60;99.90
7648;DHT22;3866;48.020;11.720;2023-11-21T14:12:30;8.20;99.90
7648;DHT22;3866;48.020;11.720;2023-11-21T14:15:16;7.90;99.90
7648;DHT22;3866;48.020;11.720;2023-11-21T14:17:45;7.70;99.90
7648;DHT22;3866;48.020;11.720;2023-11-21T14:20:13;7.70;99.90
7648;DHT22;3866;48.020;11.720;2023-11-21T14:22:42;7.90;99.90
7648;DHT22;3866;48.020;11.720;2023-11-21T14:25:15;7.90;99.90
7648;DHT22;3866;48.020;11.720;2023-11-21T14:27:46;8.00;99.90
7648;DHT22;3866;48.020;11.720;2023-11-21T14:30:16;8.00;99.90
7648;DHT22;3866;48.020;11.720;2023-11-21T14:32:46;8.20;99.90
7648;DHT22;3866;48.020;11.720;2023-11-21T14:35:14;8.10;99.90
7648;DHT22;3866;48.020;11.720;2023-11-21T14:37:42;8.10;99.90
7648;DHT22;3866;48.020;11.720;2023-11-21T14:40:13;8.30;99.90
7648;DHT22;3866;48.020;11.720;2023-11-21T14:42:49;8.30;99.90
7648;DHT22;3866;48.020;11.720;2023-11-21T14:45:19;8.20;99.90
7648;DHT22;3866;48.020;11.720;2023-11-21T14:47:48;8.30;99.90
7648;DHT22;3866;48.020;11.720;2023-11-21T14:50:24;8.20;99.90
7648;DHT22;3866;48.020;11.720;2023-11-21T14:53:11;8.10;99.90
7648;DHT22;3866;48.020;11.720;2023-11-21T14:55:44;7.90;99.90
7648;DHT22;3866;48.020;11.720;2023-11-21T14:58:22;7.90;99.90
7648;DHT22;3866;48.020;11.720;2023-11-21T15:00:57;7.80;99.90
7648;DHT22;3866;48.020;11.720;2023-11-21T15:03:25;7.60;99.90
7648;DHT22;3866;48.020;11.720;2023-11-21T15:06:16;7.50;99.90
7648;DHT22;3866;48.020;11.720;2023-11-21T15:08:49;7.30;99.90
7648;DHT22;3866;48.020;11.720;2023-11-21T15:11:27;7.40;99.90
7648;DHT22;3866;48.020;11.720;2023-11-21T15:13:58;7.30;99.90
7648;DHT22;3866;48.020;11.720;2023-11-21T15:16:27;7.10;99.90
7648;DHT22;3866;48.020;11.720;2023-11-21T15:18:55;7.10;99.90
7648;DHT22;3866;48.020;11.720;2023-11-21T15:21:25;7.10;99.90
7648;DHT22;3866;48.020;11.720;2023-11-21T15:23:52;7.20;99.90
7648;DHT22;3866;48.020;11.720;2023-11-21T15:26:21;7.20;99.90
7648;DHT22;3866;48.020;11.720;2023-11-21T15:28:51;7.10;99.90
7648;DHT22;3866;48.020;11.720;2023-11-21T15:31:20;7.20;99.90
7648;DHT22;3866;48.020;11.720;2023-11-21T15:33:51;7.20;99.90
7648;DHT22;3866;48.020;11.720;2023-11-21T15:36:19;7.10;99.90
7648;DHT22;3866;48.020;11.720;2023-11-21T15:38:47;7.00;99.90
7648;DHT22;3866;48.020;11.720;2023-11-21T15:41:16;6.90;99.90
7648;DHT22;3866;48.020;11.720;2023-11-21T15:43:44;6.90;99.90
7648;DHT22;3866;48.020;11.720;2023-11-21T15:46:14;6.90;99.90
7648;DHT22;3866;48.020;11.720;2023-11-21T15:48:43;6.90;99.90
7648;DHT22;3866;48.020;11.720;2023-11-21T15:51:16;7.00;99.90
7648;DHT22;3866;48.020;11.720;2023-11-21T15:53:43;6.90;99.90
7648;DHT22;3866;48.020;11.720;2023-11-21T15:56:11;7.00;99.90
7648;DHT22;3866;48.020;11.720;2023-11-21T15:58:38;7.10;99.90
7648;DHT22;3866;48.020;11.720;2023-11-21T16:01:06;7.00;99.90
7648;DHT22;3866;48.020;11.720;2023-11-21T16:03:37;7.00;99.90
7648;DHT22;3866;48.020;11.720;2023-11-21T16:06:04;7.00;99.90
7648;DHT22;3866;48.020;11.720;2023-11-21T16:08:36;7.00;99.90
7648;DHT22;3866;48.020;11.720;2023-11-21T16:11:04;7.00;99.90
7648;DHT22;3866;48.020;11.720;2023-11-21T16:13:31;6.90;99.90
7648;DHT22;3866;48.020;11.720;2023-11-21T16:15:59;7.10;99.90
7648;DHT22;3866;48.020;11.720;2023-11-21T16:18:26;7.00;99.90